createdAt,value
2023-01-06T00:01:15.964Z,13.80
2023-01-06T00:04:03.179Z,13.70
2023-01-06T00:06:50.126Z,13.60
2023-01-06T00:09:35.680Z,13.80
2023-01-06T00:12:21.093Z,13.70
2023-01-06T00:15:06.916Z,13.90
2023-01-06T00:17:52.191Z,13.70
2023-01-06T00:20:38.033Z,13.90
2023-01-06T00:23:25.074Z,13.90
2023-01-06T00:26:10.840Z,14.00
2023-01-06T00:28:56.986Z,14.20
2023-01-06T00:31:44.808Z,14.00
2023-01-06T00:34:30.360Z,14.10
2023-01-06T00:37:15.841Z,14.30
2023-01-06T00:40:02.726Z,14.00
2023-01-06T00:42:48.166Z,14.10
2023-01-06T00:45:33.406Z,13.90
2023-01-06T00:48:19.235Z,13.80
2023-01-06T00:51:05.055Z,13.40
2023-01-06T00:53:50.814Z,13.60
2023-01-06T00:56:37.952Z,13.60
2023-01-06T00:59:24.338Z,13.80
2023-01-06T01:02:10.134Z,13.80
2023-01-06T01:04:55.728Z,13.80
2023-01-06T01:07:41.490Z,13.70
2023-01-06T01:10:27.173Z,13.80
2023-01-06T01:13:13.989Z,13.60
2023-01-06T01:16:03.390Z,13.50
2023-01-06T01:18:48.802Z,13.60
2023-01-06T01:21:34.631Z,13.80
2023-01-06T01:24:20.504Z,13.90
2023-01-06T01:27:06.367Z,13.70
2023-01-06T01:29:53.277Z,13.90
2023-01-06T01:32:38.858Z,14.00
2023-01-06T01:35:24.375Z,14.10
2023-01-06T01:38:09.987Z,14.00
2023-01-06T01:40:55.479Z,14.10
2023-01-06T01:43:44.753Z,14.10
2023-01-06T01:46:33.822Z,14.30
2023-01-06T01:49:23.195Z,14.20
2023-01-06T01:52:10.614Z,14.10
2023-01-06T01:54:57.149Z,14.20
2023-01-06T01:57:45.385Z,14.40
2023-01-06T02:00:31.415Z,14.20
2023-01-06T02:03:20.104Z,14.30
2023-01-06T02:06:07.579Z,14.50
2023-01-06T02:08:56.042Z,14.30
2023-01-06T02:11:42.147Z,14.30
2023-01-06T02:14:30.228Z,14.50
2023-01-06T02:17:27.009Z,14.30
2023-01-06T02:20:21.321Z,14.30
2023-01-06T02:23:19.813Z,14.10
2023-01-06T02:26:33.547Z,14.20
2023-01-06T02:29:37.894Z,14.10
2023-01-06T02:32:34.599Z,14.00
2023-01-06T02:35:38.551Z,13.90
2023-01-06T02:38:28.506Z,13.90
2023-01-06T02:41:21.101Z,13.90
2023-01-06T02:44:10.658Z,13.90
2023-01-06T02:47:17.958Z,13.90
2023-01-06T02:50:10.130Z,14.10
2023-01-06T02:52:57.906Z,14.30
2023-01-06T02:55:46.509Z,14.40
2023-01-06T02:58:34.519Z,14.20
2023-01-06T03:01:25.252Z,14.30
2023-01-06T03:04:11.706Z,14.10
2023-01-06T03:07:02.466Z,14.30
2023-01-06T03:09:51.186Z,14.10
2023-01-06T03:12:39.013Z,14.20
2023-01-06T03:15:25.587Z,13.80
2023-01-06T03:18:11.620Z,14.10
2023-01-06T03:20:59.524Z,14.20
2023-01-06T03:23:46.779Z,14.20
2023-01-06T03:26:33.103Z,14.10
2023-01-06T03:29:20.479Z,14.40
2023-01-06T03:32:10.207Z,14.40
2023-01-06T03:35:06.145Z,14.50
2023-01-06T03:37:54.622Z,14.50
2023-01-06T03:40:43.898Z,14.50
2023-01-06T03:43:34.477Z,14.30
2023-01-06T03:46:24.856Z,14.10
2023-01-06T03:49:16.733Z,14.00
2023-01-06T03:52:05.586Z,14.00
2023-01-06T03:54:54.647Z,13.90
2023-01-06T03:57:43.234Z,14.10
2023-01-06T04:00:32.153Z,14.10
2023-01-06T04:03:24.089Z,14.20
2023-01-06T04:06:10.717Z,14.20
2023-01-06T04:08:57.686Z,14.10
2023-01-06T04:12:02.417Z,14.10
2023-01-06T04:14:51.642Z,14.00
2023-01-06T04:17:37.517Z,14.10
2023-01-06T04:20:24.179Z,14.10
2023-01-06T04:23:14.281Z,13.70
2023-01-06T04:26:00.636Z,14.10
2023-01-06T04:28:53.373Z,14.00
2023-01-06T04:31:40.244Z,14.20
2023-01-06T04:34:25.739Z,14.20
2023-01-06T04:37:12.806Z,14.30
2023-01-06T04:39:58.310Z,14.30
2023-01-06T04:43:02.179Z,14.30
2023-01-06T04:45:47.781Z,14.20
2023-01-06T04:48:35.025Z,14.20
2023-01-06T04:51:20.552Z,14.00
2023-01-06T04:54:05.882Z,14.00
2023-01-06T04:56:51.410Z,14.00
2023-01-06T04:59:36.855Z,14.00
2023-01-06T05:02:22.127Z,13.90
2023-01-06T05:05:09.747Z,14.00
2023-01-06T05:07:55.289Z,14.00
2023-01-06T05:10:40.864Z,13.80
2023-01-06T05:13:26.278Z,14.00
2023-01-06T05:16:14.063Z,14.10
2023-01-06T05:19:00.034Z,14.20
2023-01-06T05:21:46.723Z,13.90
2023-01-06T05:24:32.161Z,13.90
2023-01-06T05:27:17.919Z,13.90
2023-01-06T05:30:03.928Z,14.10
2023-01-06T05:32:49.256Z,14.00
2023-01-06T05:35:34.520Z,13.70
2023-01-06T05:38:21.171Z,13.70
2023-01-06T05:41:07.225Z,13.80
2023-01-06T05:43:52.847Z,14.00
2023-01-06T05:46:38.364Z,14.00
2023-01-06T05:49:23.842Z,13.70
2023-01-06T05:52:09.578Z,13.70
2023-01-06T05:54:56.205Z,13.60
2023-01-06T05:57:41.820Z,13.80
2023-01-06T06:00:27.303Z,13.70
2023-01-06T06:03:12.958Z,13.70
2023-01-06T06:06:02.171Z,13.70
2023-01-06T06:08:47.548Z,13.70
2023-01-06T06:11:34.549Z,13.70
2023-01-06T06:14:19.941Z,13.60
2023-01-06T06:17:05.834Z,13.40
2023-01-06T06:19:51.514Z,13.60
2023-01-06T06:22:37.135Z,13.60
2023-01-06T06:25:22.820Z,13.40
2023-01-06T06:28:09.652Z,13.40
2023-01-06T06:30:55.703Z,13.50
2023-01-06T06:33:41.753Z,13.30
2023-01-06T06:36:27.298Z,13.30
2023-01-06T06:39:12.864Z,13.40
2023-01-06T06:41:58.346Z,13.50
2023-01-06T06:44:45.101Z,13.40
2023-01-06T06:47:30.644Z,13.40
2023-01-06T06:50:16.236Z,13.50
2023-01-06T06:53:01.503Z,13.50
2023-01-06T06:55:46.949Z,13.50
2023-01-06T06:58:32.216Z,13.50
2023-01-06T07:01:19.906Z,13.50
2023-01-06T07:04:05.536Z,13.30
2023-01-06T07:06:51.250Z,13.20
2023-01-06T07:09:37.036Z,13.50
2023-01-06T07:12:22.212Z,13.50
2023-01-06T07:15:08.293Z,13.50
2023-01-06T07:17:55.070Z,13.30
2023-01-06T07:20:40.628Z,13.50
2023-01-06T07:23:26.282Z,13.60
2023-01-06T07:26:11.981Z,13.60
2023-01-06T07:28:57.556Z,13.40
2023-01-06T07:31:43.093Z,13.20
2023-01-06T07:34:29.822Z,13.00
2023-01-06T07:37:15.260Z,13.00
2023-01-06T07:40:00.938Z,13.00
2023-01-06T07:42:47.389Z,13.20
2023-01-06T07:45:32.997Z,13.60
2023-01-06T07:48:18.523Z,13.60
2023-01-06T07:51:05.614Z,13.70
2023-01-06T07:53:51.562Z,13.80
2023-01-06T07:56:37.167Z,13.60
2023-01-06T07:59:22.664Z,13.20
2023-01-06T08:02:09.928Z,13.00
2023-01-06T08:04:55.252Z,13.20
2023-01-06T08:07:42.247Z,13.30
2023-01-06T08:10:27.656Z,13.60
2023-01-06T08:13:13.400Z,13.60
2023-01-06T08:15:59.118Z,13.30
2023-01-06T08:18:44.433Z,13.40
2023-01-06T08:21:29.776Z,13.40
2023-01-06T08:24:16.433Z,13.70
2023-01-06T08:27:02.003Z,13.60
2023-01-06T08:29:50.061Z,13.50
2023-01-06T08:32:35.674Z,13.60
2023-01-06T08:35:21.164Z,13.80
2023-01-06T08:38:06.939Z,13.70
2023-01-06T08:40:54.004Z,13.80
2023-01-06T08:43:40.505Z,13.70
2023-01-06T08:46:26.676Z,14.10
2023-01-06T08:49:12.343Z,14.00
2023-01-06T08:51:58.104Z,14.50
2023-01-06T08:54:43.235Z,14.30
2023-01-06T08:57:29.881Z,14.30
2023-01-06T09:00:16.237Z,14.40
2023-01-06T09:03:01.835Z,14.30
2023-01-06T09:05:51.959Z,14.30
2023-01-06T09:08:37.844Z,14.40
2023-01-06T09:11:23.733Z,14.60
2023-01-06T09:14:11.451Z,14.60
2023-01-06T09:16:56.808Z,14.60
2023-01-06T09:19:42.336Z,14.40
2023-01-06T09:22:27.754Z,14.80
2023-01-06T09:25:13.040Z,15.00
2023-01-06T09:27:59.194Z,14.70
2023-01-06T09:30:48.587Z,14.70
2023-01-06T09:33:34.586Z,14.60
2023-01-06T09:36:20.131Z,14.30
2023-01-06T09:39:05.563Z,14.10
2023-01-06T09:42:09.000Z,14.20
2023-01-06T09:44:55.783Z,14.60
2023-01-06T09:47:44.269Z,15.40
2023-01-06T09:50:31.253Z,15.80
2023-01-06T09:53:18.271Z,16.60
2023-01-06T09:56:08.906Z,17.20
2023-01-06T09:58:57.330Z,18.00
2023-01-06T10:01:49.938Z,18.10
2023-01-06T10:04:36.732Z,18.10
2023-01-06T10:07:26.483Z,18.80
2023-01-06T10:10:17.297Z,18.30
2023-01-06T10:13:09.859Z,18.40
2023-01-06T10:16:00.859Z,19.00
2023-01-06T10:18:51.446Z,19.10
2023-01-06T10:21:41.277Z,19.40
2023-01-06T10:24:34.013Z,19.30
2023-01-06T10:27:22.000Z,19.50
2023-01-06T10:30:16.287Z,19.60
2023-01-06T10:33:02.836Z,19.70
2023-01-06T10:35:49.110Z,20.20
2023-01-06T10:38:38.351Z,19.80
2023-01-06T10:41:27.581Z,19.50
2023-01-06T10:44:13.873Z,19.30
2023-01-06T10:47:00.287Z,19.10
2023-01-06T10:49:45.921Z,19.10
2023-01-06T10:52:31.966Z,19.70
2023-01-06T10:55:29.084Z,19.50
2023-01-06T10:58:17.922Z,19.50
2023-01-06T11:01:08.574Z,19.70
2023-01-06T11:04:04.691Z,20.50
2023-01-06T11:06:51.203Z,20.40
2023-01-06T11:09:39.366Z,20.30
2023-01-06T11:12:28.741Z,19.90
2023-01-06T11:15:19.283Z,19.10
2023-01-06T11:18:05.266Z,19.70
2023-01-06T11:21:05.591Z,19.30
2023-01-06T11:23:57.976Z,18.60
2023-01-06T11:26:44.727Z,18.40
2023-01-06T11:29:33.091Z,18.20
2023-01-06T11:32:20.851Z,18.60
2023-01-06T11:35:06.628Z,18.90
2023-01-06T11:37:57.068Z,18.70
2023-01-06T11:40:43.074Z,18.50
2023-01-06T11:43:31.299Z,18.70
2023-01-06T11:46:20.965Z,18.40
2023-01-06T11:49:11.621Z,18.40
2023-01-06T11:52:02.615Z,18.60
2023-01-06T11:54:56.759Z,18.80
2023-01-06T11:57:46.073Z,18.80
2023-01-06T12:00:37.211Z,18.60
2023-01-06T12:03:31.098Z,17.60
2023-01-06T12:06:23.738Z,17.30
2023-01-06T12:09:13.189Z,16.90
2023-01-06T12:11:59.228Z,17.40
2023-01-06T12:14:45.781Z,17.50
2023-01-06T12:17:38.042Z,17.60
2023-01-06T12:20:27.221Z,17.60
2023-01-06T12:23:15.387Z,17.70
2023-01-06T12:26:02.428Z,17.80
2023-01-06T12:28:48.712Z,17.90
2023-01-06T12:31:43.363Z,18.10
2023-01-06T12:34:32.027Z,18.10
2023-01-06T12:37:20.702Z,18.10
2023-01-06T12:40:12.602Z,18.20
2023-01-06T12:43:00.341Z,18.40
2023-01-06T12:45:57.144Z,18.80
2023-01-06T12:48:47.082Z,19.50
2023-01-06T12:51:35.985Z,20.70
2023-01-06T12:54:24.365Z,20.40
2023-01-06T12:57:16.326Z,20.20
2023-01-06T13:00:06.752Z,20.30
2023-01-06T13:02:59.295Z,19.80
2023-01-06T13:05:55.011Z,19.70
2023-01-06T13:08:51.121Z,20.40
2023-01-06T13:11:42.682Z,20.60
2023-01-06T13:14:33.189Z,20.80
2023-01-06T13:17:21.640Z,21.00
2023-01-06T13:20:14.675Z,21.60
2023-01-06T13:23:05.717Z,22.00
2023-01-06T13:26:06.179Z,21.70
2023-01-06T13:28:59.336Z,21.20
2023-01-06T13:31:57.132Z,21.20
2023-01-06T13:34:53.825Z,21.00
2023-01-06T13:37:40.590Z,21.20
2023-01-06T13:40:34.015Z,21.20
2023-01-06T13:43:22.742Z,20.10
2023-01-06T13:46:12.489Z,19.90
2023-01-06T13:48:58.876Z,19.60
2023-01-06T13:51:44.583Z,18.90
2023-01-06T13:54:49.070Z,18.30
2023-01-06T13:57:36.952Z,17.40
2023-01-06T14:00:25.216Z,17.20
2023-01-06T14:03:22.301Z,17.20
2023-01-06T14:06:10.281Z,17.10
2023-01-06T14:08:57.294Z,17.10
2023-01-06T14:11:43.047Z,16.70
2023-01-06T14:14:32.731Z,16.00
2023-01-06T14:17:27.840Z,15.90
2023-01-06T14:20:27.586Z,15.90
2023-01-06T14:23:21.327Z,16.00
2023-01-06T14:26:08.262Z,15.90
2023-01-06T14:28:53.961Z,15.90
2023-01-06T14:31:39.577Z,15.90
2023-01-06T14:34:25.230Z,16.00
2023-01-06T14:37:13.230Z,15.90
2023-01-06T14:39:59.241Z,15.70
2023-01-06T14:42:45.584Z,15.70
2023-01-06T14:45:35.174Z,15.80
2023-01-06T14:48:22.155Z,16.20
2023-01-06T14:51:12.257Z,16.20
2023-01-06T14:54:04.001Z,16.10
2023-01-06T14:56:53.665Z,15.90
2023-01-06T14:59:39.265Z,15.90
2023-01-06T15:02:26.025Z,16.10
2023-01-06T15:05:17.321Z,15.90
2023-01-06T15:08:04.029Z,15.60
2023-01-06T15:10:51.455Z,15.60
2023-01-06T15:13:36.975Z,15.60
2023-01-06T15:16:27.785Z,15.60
2023-01-06T15:19:15.214Z,15.80
2023-01-06T15:22:01.204Z,15.50
2023-01-06T15:24:47.358Z,15.60
2023-01-06T15:27:34.280Z,15.50
2023-01-06T15:30:20.961Z,15.30
2023-01-06T15:33:06.425Z,15.40
2023-01-06T15:35:52.950Z,15.50
2023-01-06T15:38:40.394Z,15.30
2023-01-06T15:41:36.788Z,15.10
2023-01-06T15:44:28.144Z,15.00
2023-01-06T15:47:20.801Z,15.00
2023-01-06T15:50:07.761Z,15.00
2023-01-06T15:52:54.733Z,15.20
2023-01-06T15:55:43.556Z,14.80
2023-01-06T15:58:30.433Z,15.00
2023-01-06T16:01:18.360Z,14.70
2023-01-06T16:04:05.600Z,14.90
2023-01-06T16:06:51.576Z,15.10
2023-01-06T16:09:37.988Z,14.70
2023-01-06T16:12:23.499Z,14.70
2023-01-06T16:15:27.862Z,14.70
2023-01-06T16:18:15.689Z,14.70
2023-01-06T16:21:13.102Z,14.70
2023-01-06T16:24:00.157Z,14.80
2023-01-06T16:26:49.842Z,14.60
2023-01-06T16:29:36.380Z,14.80
2023-01-06T16:32:26.991Z,14.80
2023-01-06T16:35:15.221Z,14.70
2023-01-06T16:38:01.041Z,14.40
2023-01-06T16:40:50.166Z,14.20
2023-01-06T16:43:35.872Z,14.30
2023-01-06T16:46:22.391Z,14.30
2023-01-06T16:49:08.790Z,14.20
2023-01-06T16:51:55.760Z,14.40
2023-01-06T16:54:41.231Z,14.50
2023-01-06T16:57:27.018Z,14.60
2023-01-06T17:00:14.365Z,14.60
2023-01-06T17:03:00.188Z,14.60
2023-01-06T17:05:46.034Z,14.60
2023-01-06T17:08:36.037Z,14.50
2023-01-06T17:11:22.928Z,14.70
2023-01-06T17:14:13.185Z,15.10
2023-01-06T17:16:59.985Z,15.00
2023-01-06T17:19:45.369Z,15.00
2023-01-06T17:22:31.375Z,15.30
2023-01-06T17:25:19.865Z,15.20
2023-01-06T17:28:13.556Z,14.90
2023-01-06T17:30:59.822Z,15.10
2023-01-06T17:33:45.606Z,15.20
2023-01-06T17:36:34.230Z,15.10
2023-01-06T17:39:21.569Z,15.20
2023-01-06T17:42:27.651Z,15.20
2023-01-06T17:45:17.963Z,15.00
2023-01-06T17:48:09.520Z,15.00
2023-01-06T17:50:55.613Z,15.10
2023-01-06T17:53:59.969Z,14.90
2023-01-06T17:56:46.476Z,15.00
2023-01-06T17:59:35.133Z,15.10
2023-01-06T18:02:38.615Z,15.00
2023-01-06T18:05:44.223Z,15.10
2023-01-06T18:08:30.629Z,15.20
2023-01-06T18:11:30.177Z,15.10
2023-01-06T18:14:23.879Z,15.00
2023-01-06T18:17:21.265Z,15.00
2023-01-06T18:20:09.443Z,15.30
2023-01-06T18:22:55.918Z,15.40
2023-01-06T18:25:41.664Z,15.50
2023-01-06T18:28:28.516Z,15.30
2023-01-06T18:31:14.183Z,14.90
2023-01-06T18:34:01.679Z,15.00
2023-01-06T18:36:49.601Z,14.90
2023-01-06T18:39:38.555Z,14.90
2023-01-06T18:42:25.558Z,14.80
2023-01-06T18:45:26.136Z,14.90
2023-01-06T18:48:14.178Z,15.20
2023-01-06T18:51:02.082Z,15.30
2023-01-06T18:53:47.710Z,15.40
2023-01-06T18:56:34.817Z,15.20
2023-01-06T18:59:21.610Z,15.10
2023-01-06T19:02:21.382Z,15.20
2023-01-06T19:05:11.626Z,15.20
2023-01-06T19:08:01.660Z,14.90
2023-01-06T19:10:48.866Z,14.80
2023-01-06T19:13:38.315Z,14.60
2023-01-06T19:16:26.688Z,14.50
2023-01-06T19:19:17.021Z,14.70
2023-01-06T19:22:17.611Z,14.90
2023-01-06T19:25:07.409Z,14.80
2023-01-06T19:27:54.833Z,14.70
2023-01-06T19:30:42.214Z,14.90
2023-01-06T19:33:36.750Z,15.00
2023-01-06T19:36:27.941Z,15.00
2023-01-06T19:39:28.393Z,15.10
2023-01-06T19:42:17.206Z,15.20
2023-01-06T19:45:13.859Z,15.10
2023-01-06T19:48:00.195Z,15.00
2023-01-06T19:50:46.057Z,14.90
2023-01-06T19:53:34.769Z,15.20
2023-01-06T19:56:22.714Z,15.30
2023-01-06T19:59:15.291Z,15.30
2023-01-06T20:02:04.191Z,15.20
2023-01-06T20:04:50.287Z,15.00
2023-01-06T20:07:36.475Z,14.70
2023-01-06T20:10:22.046Z,14.90
2023-01-06T20:13:07.758Z,14.90
2023-01-06T20:15:54.957Z,14.90
2023-01-06T20:18:40.415Z,14.90
2023-01-06T20:21:26.141Z,15.10
2023-01-06T20:24:14.186Z,15.00
2023-01-06T20:27:00.089Z,14.90
2023-01-06T20:29:45.544Z,14.80
2023-01-06T20:32:32.543Z,14.80
2023-01-06T20:35:17.958Z,14.80
2023-01-06T20:38:03.596Z,14.90
2023-01-06T20:40:50.244Z,14.90
2023-01-06T20:43:35.993Z,14.80
2023-01-06T20:46:21.516Z,14.90
2023-01-06T20:49:08.435Z,14.60
2023-01-06T20:51:53.864Z,14.80
2023-01-06T20:54:39.370Z,14.90
2023-01-06T20:57:25.768Z,14.80
2023-01-06T21:00:12.447Z,14.80
2023-01-06T21:02:57.874Z,15.10
2023-01-06T21:05:45.065Z,15.10
2023-01-06T21:08:30.573Z,14.60
2023-01-06T21:11:16.187Z,15.00
2023-01-06T21:14:01.860Z,14.90
2023-01-06T21:16:47.828Z,14.80
2023-01-06T21:19:33.407Z,14.90
2023-01-06T21:22:20.748Z,14.70
2023-01-06T21:25:06.556Z,14.90
2023-01-06T21:27:52.664Z,14.90
2023-01-06T21:30:38.696Z,14.80
2023-01-06T21:33:24.357Z,14.90
2023-01-06T21:36:10.001Z,14.80
2023-01-06T21:38:56.989Z,14.80
2023-01-06T21:42:01.092Z,14.60
2023-01-06T21:44:46.745Z,14.60
2023-01-06T21:47:32.209Z,14.90
2023-01-06T21:50:17.864Z,15.00
2023-01-06T21:53:03.402Z,14.60
2023-01-06T21:55:50.377Z,14.60
2023-01-06T21:58:36.094Z,14.50
2023-01-06T22:01:22.108Z,14.50
2023-01-06T22:04:08.001Z,14.60
2023-01-06T22:06:54.122Z,14.50
2023-01-06T22:09:40.478Z,14.50
2023-01-06T22:12:28.100Z,14.60
2023-01-06T22:15:14.384Z,14.50
2023-01-06T22:18:00.310Z,14.40
2023-01-06T22:20:46.871Z,14.30
2023-01-06T22:23:34.219Z,14.40
2023-01-06T22:26:20.478Z,14.60
2023-01-06T22:29:08.518Z,14.40
2023-01-06T22:31:55.775Z,14.40
2023-01-06T22:34:42.169Z,14.40
2023-01-06T22:37:28.082Z,14.30
2023-01-06T22:40:15.000Z,14.50
2023-01-06T22:43:00.760Z,14.70
2023-01-06T22:45:52.654Z,14.60
2023-01-06T22:48:39.015Z,14.60
2023-01-06T22:51:26.127Z,14.50
2023-01-06T22:54:11.970Z,14.50
2023-01-06T22:56:58.222Z,14.60
2023-01-06T22:59:43.944Z,14.50
2023-01-06T23:02:31.412Z,14.60
2023-01-06T23:05:17.272Z,14.60
2023-01-06T23:08:04.096Z,14.60
2023-01-06T23:10:50.071Z,14.70
2023-01-06T23:13:37.076Z,14.90
2023-01-06T23:16:23.254Z,14.90
2023-01-06T23:19:13.491Z,14.60
2023-01-06T23:21:59.258Z,14.70
2023-01-06T23:24:44.425Z,14.40
2023-01-06T23:27:31.442Z,14.50
2023-01-06T23:30:17.279Z,14.10
2023-01-06T23:33:02.952Z,14.20
2023-01-06T23:35:50.172Z,14.20
2023-01-06T23:41:20.763Z,14.40
2023-01-06T23:44:07.102Z,14.50
2023-01-06T23:46:52.705Z,14.70
2023-01-06T23:49:38.386Z,14.70
2023-01-06T23:52:24.258Z,14.60
2023-01-06T23:55:10.172Z,14.20
2023-01-06T23:57:57.849Z,14.10
